Terminal Aerodrome Forecast
Issued by NWS

Current Version | Previous Version | Text Only | Print | Product List | Glossary On
Versions: 1 2 3 4 5 6 7 8 9 10 11 12 13 14 15 16 17 18 19 20 21 22 23 24 25 26 27 28
055
FTUS43 KDVN 231730
TAFCID
TAF
KCID 231730Z 2318/2418 31009KT 6SM BR OVC007
     FM232000 31008KT P6SM OVC015
     FM240200 32003KT 5SM BR OVC009
     FM240600 08003KT 2SM BR OVC006
     FM241600 12008KT 5SM BR BKN010=

USA.gov is the U.S. government's official web portal to all federal, state and local government web resources and services.